Time;durP1;ratioP1;P1;durP2;ratioP2;P2;SDS_P1;SDS_P2;PMS_P1;PMS_P2;Temp;Humidity;BMP_temperature;BMP_pressure;BME280_temperature;BME280_humidity;BME280_pressure;Samples;Min_cycle;Max_cycle;Signal;HPM_P1;HPM_P2
2021/08/14 00:01:56;;;;;;;10.43;6.20;;;;;;;14.20;85.27;100820.44;1639139;86;21614;-79
2021/08/14 00:04:23;;;;;;;11.05;6.78;;;;;;;14.15;85.96;100823.70;1639821;87;21138;-80
2021/08/14 00:06:50;;;;;;;12.88;7.15;;;;;;;14.11;86.18;100820.34;1639342;87;21160;-82
2021/08/14 00:09:16;;;;;;;12.07;7.05;;;;;;;14.08;86.52;100815.61;1647424;86;21616;-82
2021/08/14 00:11:45;;;;;;;12.75;6.62;;;;;;;14.08;86.65;100816.94;1655293;86;21635;-82
2021/08/14 00:14:11;;;;;;;10.75;6.08;;;;;;;14.05;86.14;100816.14;1655551;86;21172;-81
2021/08/14 00:16:39;;;;;;;12.20;7.05;;;;;;;14.05;86.70;100820.58;1610233;89;21081;-80
2021/08/14 00:19:07;;;;;;;14.13;7.12;;;;;;;14.07;86.88;100825.35;1599050;89;21073;-81
2021/08/14 00:21:34;;;;;;;12.18;6.65;;;;;;;14.05;87.14;100826.73;1596296;89;21085;-81
2021/08/14 00:24:03;;;;;;;16.25;9.75;;;;;;;14.04;87.38;100825.02;1655518;86;21190;-81
2021/08/14 00:26:29;;;;;;;10.08;7.33;;;;;;;14.01;87.41;100833.09;1610145;89;21099;-81
2021/08/14 00:28:56;;;;;;;10.18;7.08;;;;;;;13.99;87.69;100834.09;1599670;89;21124;-81
2021/08/14 00:31:23;;;;;;;12.58;6.60;;;;;;;13.96;87.58;100837.69;1596592;89;21105;-81
2021/08/14 00:33:50;;;;;;;9.40;6.30;;;;;;;13.93;86.68;100837.82;1655828;86;21081;-78
2021/08/14 00:36:16;;;;;;;13.78;7.65;;;;;;;13.91;87.37;100839.66;1655322;86;21129;-79
2021/08/14 00:38:43;;;;;;;10.38;6.47;;;;;;;13.91;87.38;100838.34;1655485;86;21552;-76
2021/08/14 00:41:09;;;;;;;10.68;7.67;;;;;;;13.91;87.21;100839.66;1655274;86;21136;-76
2021/08/14 00:43:40;;;;;;;9.87;4.83;;;;;;;13.90;87.39;100835.30;1655486;86;22122;-77
2021/08/14 00:46:08;;;;;;;7.30;5.22;;;;;;;13.88;86.62;100842.45;1655694;86;21536;-77
2021/08/14 00:48:35;;;;;;;15.60;7.33;;;;;;;13.88;87.24;100841.13;1581671;89;21094;-79
2021/08/14 00:51:04;;;;;;;8.08;6.05;;;;;;;13.87;87.34;100840.70;1588144;90;21168;-81
2021/08/14 00:53:30;;;;;;;12.75;7.40;;;;;;;13.89;87.75;100849.45;1569593;90;21192;-79
2021/08/14 00:55:58;;;;;;;13.05;7.75;;;;;;;13.91;88.25;100846.75;1591001;90;21577;-80
2021/08/14 00:58:27;;;;;;;14.05;7.53;;;;;;;13.91;87.46;100850.25;1589783;90;21148;-81
2021/08/14 01:00:56;;;;;;;18.73;8.33;;;;;;;13.89;87.93;100851.24;1590676;90;21062;-80
2021/08/14 01:03:23;;;;;;;14.40;5.90;;;;;;;13.83;88.41;100849.72;1590990;90;21140;-80
2021/08/14 01:05:50;;;;;;;12.68;6.83;;;;;;;13.79;88.63;100850.75;1587338;90;21125;-82
2021/08/14 01:08:17;;;;;;;15.68;7.75;;;;;;;13.78;88.98;100856.95;1586654;90;22017;-80
2021/08/14 01:10:44;;;;;;;7.35;5.40;;;;;;;13.78;88.04;100867.53;1589136;90;21614;-81
2021/08/14 01:13:13;;;;;;;11.00;7.08;;;;;;;13.78;88.44;100859.16;1617659;88;21679;-78
2021/08/14 01:15:46;;;;;;;13.18;7.28;;;;;;;13.77;88.54;100861.39;1619079;88;21107;-80
2021/08/14 01:18:16;;;;;;;9.80;6.50;;;;;;;13.73;88.13;100858.91;1618485;88;21088;-80
2021/08/14 01:20:44;;;;;;;10.23;6.97;;;;;;;13.72;88.80;100863.82;1617626;88;21140;-81
2021/08/14 01:23:16;;;;;;;13.40;6.83;;;;;;;13.71;89.09;100863.41;1617604;88;21607;-80
2021/08/14 01:25:43;;;;;;;11.43;7.00;;;;;;;13.63;89.46;100861.91;1617818;88;21109;-80
2021/08/14 01:28:10;;;;;;;13.75;7.45;;;;;;;13.62;89.93;100854.91;1607063;88;21637;-80
2021/08/14 01:30:40;;;;;;;9.55;6.92;;;;;;;13.59;89.70;100860.30;1618255;88;21524;-78
2021/08/14 01:33:12;;;;;;;15.15;7.70;;;;;;;13.58;89.82;100855.94;1606425;88;21229;-80
2021/08/14 01:35:42;;;;;;;11.40;7.50;;;;;;;13.58;89.89;100853.30;1606461;89;21532;-83
2021/08/14 01:38:09;;;;;;;13.28;6.42;;;;;;;13.56;89.92;100853.81;1606175;88;21149;-83
2021/08/14 01:40:36;;;;;;;10.43;7.47;;;;;;;13.54;90.02;100855.64;1606640;89;21827;-83
2021/08/14 01:43:03;;;;;;;12.00;6.67;;;;;;;13.52;90.00;100860.13;1596366;89;21104;-82
2021/08/14 01:45:30;;;;;;;12.03;7.83;;;;;;;13.51;90.18;100855.77;1589465;90;21156;-84
2021/08/14 01:47:57;;;;;;;10.10;7.00;;;;;;;13.47;90.30;100852.83;1589096;90;21180;-82
2021/08/14 01:50:26;;;;;;;9.63;6.47;;;;;;;13.47;90.25;100855.48;1617558;87;21222;-81
2021/08/14 01:52:54;;;;;;;8.80;6.47;;;;;;;13.47;90.59;100852.83;1623477;88;21140;-85
2021/08/14 01:55:22;;;;;;;8.00;6.12;;;;;;;13.46;90.56;100851.13;1655353;86;21096;-81
2021/08/14 01:57:50;;;;;;;11.95;7.15;;;;;;;13.43;90.70;100847.25;1651767;86;21063;-81
2021/08/14 02:00:18;;;;;;;11.63;6.37;;;;;;;13.41;90.80;100848.64;1638871;87;21862;-86
2021/08/14 02:02:45;;;;;;;6.20;4.90;;;;;;;13.42;90.16;100850.83;1638822;87;21594;-83
2021/08/14 02:05:12;;;;;;;10.13;7.60;;;;;;;13.41;90.14;100849.08;1638944;87;21059;-82
2021/08/14 02:07:41;;;;;;;9.55;6.30;;;;;;;13.41;89.72;100849.08;1638979;87;21064;-81
2021/08/14 02:10:10;;;;;;;7.85;5.45;;;;;;;13.40;89.64;100853.98;1653075;86;21535;-85
2021/08/14 02:12:37;;;;;;;9.98;7.03;;;;;;;13.37;89.84;100847.03;1655527;86;21061;-85
2021/08/14 02:15:07;;;;;;;10.23;6.20;;;;;;;13.36;89.08;100856.34;1655727;86;21113;-82
2021/08/14 02:17:33;;;;;;;11.25;7.60;;;;;;;13.36;89.75;100847.08;1610129;89;21625;-83
2021/08/14 02:20:01;;;;;;;11.60;7.00;;;;;;;13.35;90.40;100840.07;1599159;89;21120;-83
2021/08/14 02:22:27;;;;;;;11.53;7.17;;;;;;;13.34;89.97;100840.97;1600794;89;21544;-85
2021/08/14 02:24:55;;;;;;;9.48;7.28;;;;;;;13.33;90.21;100851.16;1655558;86;21077;-82
2021/08/14 02:27:23;;;;;;;8.20;5.20;;;;;;;13.30;90.49;100847.33;1655109;86;21604;-82
2021/08/14 02:29:51;;;;;;;10.20;6.45;;;;;;;13.21;90.61;100845.38;1655044;86;21101;-84
2021/08/14 02:32:18;;;;;;;11.97;7.20;;;;;;;13.18;90.65;100852.54;1656003;86;21077;-81
2021/08/14 02:34:45;;;;;;;5.03;3.60;;;;;;;13.12;90.21;100857.61;1655966;86;21149;-81
2021/08/14 02:37:14;;;;;;;11.22;7.33;;;;;;;13.11;89.81;100862.51;1655381;86;21137;-81
2021/08/14 02:39:42;;;;;;;12.13;6.83;;;;;;;13.08;89.60;100862.59;1655327;86;21074;-81
2021/08/14 02:42:10;;;;;;;8.93;6.28;;;;;;;13.10;90.14;100869.16;1652213;86;21602;-82
2021/08/14 02:44:37;;;;;;;10.00;7.08;;;;;;;13.09;90.56;100863.02;1646670;86;21587;-81
2021/08/14 02:47:04;;;;;;;12.65;6.83;;;;;;;13.10;90.57;100863.87;1646533;87;21144;-81
2021/08/14 02:49:32;;;;;;;11.93;7.50;;;;;;;13.08;90.81;100863.92;1646083;86;21005;-83
2021/08/14 02:52:00;;;;;;;12.80;7.30;;;;;;;13.03;91.05;100868.52;1647219;86;21072;-86
2021/08/14 02:54:27;;;;;;;12.73;7.95;;;;;;;12.94;91.10;100860.91;1647143;86;21061;-83
2021/08/14 02:56:54;;;;;;;9.38;6.85;;;;;;;12.94;91.47;100872.80;1646952;87;21163;-84
2021/08/14 02:59:21;;;;;;;10.90;5.95;;;;;;;12.90;91.71;100871.17;1648822;86;21806;-82
2021/08/14 03:03:59;;;;;;;10.70;7.22;;;;;;;12.93;92.00;100865.34;1795509;79;22351;-82
2021/08/14 03:06:27;;;;;;;10.85;7.05;;;;;;;12.88;91.82;100858.47;1747647;80;20998;-84
2021/08/14 03:08:56;;;;;;;10.10;7.12;;;;;;;12.89;91.97;100854.92;1723451;83;21033;-83
2021/08/14 03:11:23;;;;;;;9.15;6.67;;;;;;;12.87;92.09;100857.61;1725230;83;20950;-83
2021/08/14 03:13:51;;;;;;;9.85;6.95;;;;;;;12.87;92.19;100858.08;1725096;82;21576;-83
2021/08/14 03:16:20;;;;;;;12.30;7.62;;;;;;;12.87;92.35;100854.11;1725398;82;21378;-83
2021/08/14 03:18:49;;;;;;;11.10;7.60;;;;;;;12.89;92.52;100854.92;1725178;82;21045;-83
2021/08/14 03:21:16;;;;;;;10.75;7.35;;;;;;;12.95;92.79;100863.94;1724908;83;21164;-84
2021/08/14 03:23:45;;;;;;;13.25;7.65;;;;;;;13.13;92.90;100856.67;1724994;83;21009;-84
2021/08/14 03:26:13;;;;;;;11.50;6.90;;;;;;;13.46;92.08;100851.13;1725253;83;21077;-84
2021/08/14 03:28:40;;;;;;;10.93;6.45;;;;;;;13.84;91.17;100854.07;1724906;83;21226;-80
2021/08/14 03:31:06;;;;;;;11.00;6.30;;;;;;;14.22;89.83;100851.70;1724912;83;21061;-84
2021/08/14 03:33:33;;;;;;;10.78;6.33;;;;;;;14.58;87.92;100852.44;1724958;83;21135;-82
2021/08/14 03:36:00;;;;;;;9.28;6.53;;;;;;;14.95;86.62;100847.73;1725063;83;21081;-84
2021/08/14 03:38:27;;;;;;;12.07;6.40;;;;;;;15.28;84.98;100845.87;1726071;82;21484;-81
2021/08/14 03:40:55;;;;;;;10.70;6.37;;;;;;;15.55;83.72;100850.83;1728316;83;21092;-84
2021/08/14 03:43:23;;;;;;;10.53;6.25;;;;;;;15.82;82.62;100850.89;1727553;82;21513;-81
2021/08/14 03:45:53;;;;;;;11.30;6.90;;;;;;;16.13;80.84;100856.94;1730022;81;21141;-84
2021/08/14 03:48:21;;;;;;;9.65;6.67;;;;;;;16.48;79.80;100859.66;1729834;82;21044;-83
2021/08/14 03:50:48;;;;;;;10.35;6.58;;;;;;;16.78;78.09;100853.72;1728696;83;21022;-86
2021/08/14 03:53:15;;;;;;;11.68;6.17;;;;;;;17.05;76.90;100857.27;1725278;83;21116;-84
2021/08/14 03:55:44;;;;;;;11.00;6.45;;;;;;;17.34;75.74;100853.03;1725015;83;21002;-85
2021/08/14 03:58:12;;;;;;;9.98;6.08;;;;;;;17.63;74.23;100848.80;1724800;82;21030;-84
2021/08/14 04:00:39;;;;;;;11.15;6.33;;;;;;;17.90;73.24;100850.89;1725653;83;21082;-83
2021/08/14 04:03:06;;;;;;;10.03;5.67;;;;;;;18.21;71.94;100853.54;1715714;83;21061;-81
2021/08/14 04:05:33;;;;;;;10.18;5.75;;;;;;;18.53;70.49;100857.48;1707975;84;21567;-82
2021/08/14 04:08:00;;;;;;;15.30;6.50;;;;;;;18.88;69.60;100850.56;1722269;82;21055;-81
2021/08/14 04:10:27;;;;;;;12.85;5.45;;;;;;;19.17;67.41;100851.46;1722827;82;21795;-81
2021/08/14 04:12:54;;;;;;;12.47;6.15;;;;;;;19.46;65.86;100843.44;1722746;82;21050;-82
2021/08/14 04:15:21;;;;;;;10.40;5.37;;;;;;;19.82;64.80;100846.95;1722134;83;21077;-80
2021/08/14 04:17:48;;;;;;;8.45;5.40;;;;;;;20.18;63.55;100845.53;1720224;83;21053;-84
2021/08/14 04:20:16;;;;;;;8.93;5.78;;;;;;;20.56;62.72;100850.62;1712330;83;21092;-82
2021/08/14 04:22:43;;;;;;;9.03;4.65;;;;;;;20.99;61.03;100851.74;1710737;83;21151;-81
2021/08/14 04:25:11;;;;;;;10.32;5.67;;;;;;;21.38;59.29;100849.42;1710324;83;21120;-84
2021/08/14 04:27:38;;;;;;;13.32;4.80;;;;;;;21.72;58.19;100841.69;1710257;83;21061;-82
2021/08/14 04:30:06;;;;;;;8.20;5.08;;;;;;;22.05;57.10;100845.55;1710361;83;21131;-85
2021/08/14 04:32:35;;;;;;;7.58;4.70;;;;;;;22.40;56.07;100841.09;1711542;83;21029;-85
2021/08/14 04:35:09;;;;;;;7.95;4.50;;;;;;;22.79;54.94;100843.55;1728960;82;21124;-80
2021/08/14 04:37:37;;;;;;;10.82;4.80;;;;;;;23.14;53.67;100843.52;1729495;82;21121;-81
2021/08/14 04:40:06;;;;;;;7.22;4.10;;;;;;;23.40;52.60;100848.69;1726368;82;21066;-76
2021/08/14 04:42:34;;;;;;;9.75;4.08;;;;;;;23.58;49.75;100851.25;1731411;82;21000;-79
2021/08/14 04:45:04;;;;;;;7.75;4.30;;;;;;;23.70;49.32;100850.75;1726869;82;21060;-87
2021/08/14 04:47:31;;;;;;;8.63;4.17;;;;;;;23.95;48.92;100853.67;1722343;83;21140;-79
2021/08/14 04:49:58;;;;;;;10.43;4.10;;;;;;;24.29;47.84;100850.39;1727943;82;21101;-84
2021/08/14 04:52:26;;;;;;;6.22;4.03;;;;;;;24.63;47.09;100851.61;1732310;82;21113;-80
2021/08/14 04:54:52;;;;;;;7.17;3.83;;;;;;;24.88;45.62;100854.41;1731485;82;21084;-82
2021/08/14 04:57:19;;;;;;;5.25;3.90;;;;;;;25.06;44.85;100854.67;1727871;82;21051;-78
2021/08/14 04:59:46;;;;;;;7.72;4.17;;;;;;;25.29;43.47;100855.39;1727769;82;21910;-80
2021/08/14 05:02:15;;;;;;;8.30;3.95;;;;;;;25.50;42.92;100848.59;1711831;81;21715;-84
2021/08/14 05:04:41;;;;;;;7.20;3.95;;;;;;;25.63;42.99;100844.33;1731523;81;21054;-87
2021/08/14 05:07:10;;;;;;;8.45;4.28;;;;;;;26.01;42.73;100845.43;1729166;82;21031;-85
2021/08/14 05:09:38;;;;;;;8.45;4.25;;;;;;;26.36;40.84;100839.98;1729987;82;21059;-87
2021/08/14 05:12:08;;;;;;;8.08;4.25;;;;;;;26.48;40.40;100836.17;1731715;82;21118;-88
2021/08/14 05:14:35;;;;;;;7.92;3.80;;;;;;;26.57;40.15;100841.22;1726555;81;21097;-86
2021/08/14 05:17:04;;;;;;;6.08;4.10;;;;;;;26.79;40.39;100840.06;1722492;82;21061;-88
2021/08/14 05:19:31;;;;;;;7.90;4.00;;;;;;;27.13;39.28;100832.81;1712313;82;20983;-85
2021/08/14 05:21:58;;;;;;;8.48;4.28;;;;;;;27.41;39.16;100838.62;1735142;82;21020;-87
2021/08/14 05:24:31;;;;;;;10.13;3.87;;;;;;;27.87;38.22;100837.36;1722202;82;21042;-88
2021/08/14 05:26:58;;;;;;;6.67;3.90;;;;;;;28.27;37.43;100840.64;1726411;82;21513;-89
2021/08/14 05:29:29;;;;;;;10.95;3.98;;;;;;;28.61;36.49;100838.94;1736795;82;21616;-88
2021/08/14 05:31:58;;;;;;;12.03;4.67;;;;;;;29.00;35.63;100831.77;1723264;82;21018;-87
2021/08/14 05:34:26;;;;;;;;;;;;;;;29.19;33.92;100837.50;1727816;82;21580;-84
2021/08/14 05:36:56;;;;;;;6.85;4.12;;;;;;;29.07;34.79;100832.86;1707089;83;21182;-85
2021/08/14 05:39:29;;;;;;;13.38;4.30;;;;;;;29.24;33.86;100835.66;1706783;84;21125;-86
2021/08/14 05:41:56;;;;;;;11.10;4.03;;;;;;;29.34;34.04;100844.55;1708688;84;21741;-87
2021/08/14 05:44:23;;;;;;;6.10;4.40;;;;;;;29.45;33.74;100842.07;1708104;84;21133;-88
2021/08/14 05:47:01;;;;;;;9.73;4.37;;;;;;;29.60;32.88;100841.78;1708849;84;21042;-87
2021/08/14 05:49:24;;;;;;;12.68;4.80;;;;;;;29.67;33.28;100832.48;1722456;82;21153;-85
2021/08/14 05:51:53;;;;;;;7.67;4.40;;;;;;;29.82;33.18;100836.81;1704403;82;21087;-87
2021/08/14 05:54:21;;;;;;;7.60;4.40;;;;;;;30.20;32.92;100832.63;1722120;82;21068;-85
2021/08/14 05:56:47;;;;;;;12.35;4.05;;;;;;;30.52;32.06;100836.42;1735667;82;21019;-87
2021/08/14 05:59:15;;;;;;;11.33;4.47;;;;;;;30.84;31.68;100831.99;1723537;82;21079;-87
2021/08/14 06:01:42;;;;;;;12.45;4.92;;;;;;;31.05;30.93;100835.03;1726021;81;21146;-84
2021/08/14 06:04:09;;;;;;;7.55;4.62;;;;;;;31.20;30.90;100842.47;1725994;82;20994;-85
2021/08/14 06:06:42;;;;;;;7.40;4.33;;;;;;;31.26;30.46;100837.70;1737784;82;21014;-87
2021/08/14 06:09:10;;;;;;;5.80;4.20;;;;;;;31.23;30.42;100842.14;1705976;83;21067;-86
2021/08/14 06:11:39;;;;;;;5.72;3.90;;;;;;;31.48;30.45;100846.51;1708139;84;21507;-87
2021/08/14 06:14:07;;;;;;;8.33;4.45;;;;;;;31.73;29.78;100839.08;1711395;82;21152;-88
2021/08/14 06:16:35;;;;;;;12.03;4.60;;;;;;;31.76;29.42;100841.95;1733675;82;21478;-87
2021/08/14 06:19:03;;;;;;;10.78;4.22;;;;;;;31.78;29.66;100838.55;1724196;82;21038;-85
2021/08/14 06:21:30;;;;;;;9.03;4.20;;;;;;;31.68;29.61;100841.98;1737400;82;22113;-87
2021/08/14 06:23:57;;;;;;;10.00;5.05;;;;;;;31.75;30.00;100840.28;1730545;82;21055;-85
2021/08/14 06:26:23;;;;;;;6.33;4.12;;;;;;;32.03;29.19;100845.26;1737053;82;21505;-87
2021/08/14 06:28:50;;;;;;;9.65;4.45;;;;;;;32.22;28.98;100841.20;1729749;83;21065;-86
2021/08/14 06:31:18;;;;;;;9.28;4.55;;;;;;;32.45;28.69;100843.93;1729937;83;21040;-86
2021/08/14 06:33:46;;;;;;;5.62;3.62;;;;;;;32.75;28.65;100844.89;1728602;82;21057;-88
2021/08/14 06:36:31;;;;;;;12.73;4.53;;;;;;;32.99;28.09;100842.42;1726642;82;21053;-85
2021/08/14 06:39:00;;;;;;;9.25;3.98;;;;;;;33.09;27.56;100843.05;1733002;82;21163;-87
2021/08/14 06:41:28;;;;;;;7.83;4.40;;;;;;;33.09;27.82;100840.31;1725362;82;21077;-86
2021/08/14 06:43:55;;;;;;;10.05;4.33;;;;;;;33.26;27.88;100842.86;1734007;82;21647;-84
2021/08/14 06:46:25;;;;;;;9.38;4.17;;;;;;;33.32;27.78;100841.59;1736793;82;21144;-85
2021/08/14 06:48:54;;;;;;;8.45;4.33;;;;;;;33.50;27.18;100835.75;1731079;82;21502;-86
2021/08/14 06:51:21;;;;;;;8.05;4.30;;;;;;;33.45;27.01;100832.72;1734500;82;21176;-89
2021/08/14 06:53:48;;;;;;;17.82;4.58;;;;;;;33.37;27.34;100835.04;1734396;82;21038;-86
2021/08/14 06:56:15;;;;;;;41.53;6.58;;;;;;;33.69;27.63;100837.59;1735624;82;21038;-87
2021/08/14 06:58:42;;;;;;;11.00;4.47;;;;;;;34.09;26.67;100827.11;1732056;81;21050;-85
2021/08/14 07:01:09;;;;;;;8.40;4.78;;;;;;;34.30;25.49;100824.40;1721360;82;21112;-88
2021/08/14 07:03:36;;;;;;;11.03;3.85;;;;;;;34.18;25.39;100830.07;1724347;81;21152;-87
2021/08/14 07:06:03;;;;;;;7.97;3.70;;;;;;;33.87;25.74;100820.27;1727067;82;21062;-84
2021/08/14 07:08:30;;;;;;;9.88;4.45;;;;;;;33.56;26.06;100827.30;1736655;82;21293;-87
2021/08/14 07:10:59;;;;;;;6.30;3.92;;;;;;;33.54;26.58;100828.84;1736817;82;21047;-88
2021/08/14 07:13:26;;;;;;;5.47;3.65;;;;;;;33.59;26.30;100825.08;1723127;82;21145;-87
2021/08/14 07:15:55;;;;;;;6.28;4.15;;;;;;;33.59;25.96;100826.94;1727566;82;21153;-89
2021/08/14 07:18:23;;;;;;;8.93;4.10;;;;;;;33.63;26.29;100821.44;1714877;82;21062;-87
2021/08/14 07:20:50;;;;;;;6.97;4.12;;;;;;;33.61;26.18;100814.81;1737377;82;21053;-86
2021/08/14 07:23:17;;;;;;;8.58;3.92;;;;;;;33.32;26.44;100818.92;1737009;82;21061;-86
2021/08/14 07:25:46;;;;;;;8.18;3.98;;;;;;;33.05;26.75;100819.89;1737251;82;21054;-85
2021/08/14 07:28:12;;;;;;;7.42;4.20;;;;;;;32.94;27.23;100824.41;1731671;82;21129;-84
2021/08/14 07:30:40;;;;;;;6.60;3.80;;;;;;;32.99;26.92;100817.38;1737139;82;21011;-88
2021/08/14 07:33:08;;;;;;;9.28;4.08;;;;;;;33.01;26.92;100815.80;1735999;82;21011;-87
2021/08/14 07:35:35;;;;;;;11.15;4.67;;;;;;;33.11;26.90;100814.22;1718394;82;21027;-85
2021/08/14 07:38:02;;;;;;;7.00;4.17;;;;;;;33.35;26.19;100810.34;1734138;82;20998;-86
2021/08/14 07:40:29;;;;;;;8.00;4.33;;;;;;;33.48;26.42;100811.88;1718025;82;21083;-88
2021/08/14 07:43:00;;;;;;;9.15;4.10;;;;;;;33.84;25.37;100802.87;1726414;82;21078;-85
2021/08/14 07:45:27;;;;;;;;;;;;;;;33.95;25.05;100798.27;1715275;82;21070;-86
2021/08/14 07:47:54;;;;;;;5.53;3.52;;;;;;;33.80;24.92;100789.30;1717037;82;20228;-85
2021/08/14 07:50:26;;;;;;;6.35;3.60;;;;;;;33.55;25.07;100790.97;1726683;82;21598;-84
2021/08/14 07:52:54;;;;;;;7.03;3.85;;;;;;;33.68;25.45;100788.09;1726820;82;21195;-85
2021/08/14 07:55:21;;;;;;;4.65;3.05;;;;;;;33.93;25.59;100790.78;1678419;84;21384;-85
2021/08/14 07:57:48;;;;;;;7.65;3.42;;;;;;;34.08;24.22;100789.90;1688593;84;21248;-84
2021/08/14 08:00:17;;;;;;;5.08;3.33;;;;;;;34.29;24.90;100791.28;1689100;84;21140;-87
2021/08/14 08:02:44;;;;;;;7.45;3.77;;;;;;;34.57;24.05;100791.83;1672684;84;21539;-85
2021/08/14 08:05:12;;;;;;;7.37;3.87;;;;;;;34.65;23.33;100776.69;1680128;85;21508;-85
2021/08/14 08:07:44;;;;;;;14.05;4.47;;;;;;;34.44;24.14;100787.09;1682606;85;21053;-83
2021/08/14 08:10:09;;;;;;;5.53;3.50;;;;;;;34.56;24.64;100777.84;1675958;84;21762;-85
2021/08/14 08:12:37;;;;;;;8.60;4.10;;;;;;;34.93;23.59;100777.19;1660817;86;21111;-79
2021/08/14 08:15:06;;;;;;;5.65;3.52;;;;;;;34.99;23.55;100776.36;1689658;83;21100;-80
2021/08/14 08:17:33;;;;;;;8.18;3.60;;;;;;;35.20;22.99;100769.47;1686171;84;21139;-80
2021/08/14 08:20:01;;;;;;;5.15;2.80;;;;;;;35.24;22.93;100769.89;1665561;86;21608;-78
2021/08/14 08:22:28;;;;;;;5.42;3.52;;;;;;;35.26;23.18;100770.00;1665847;86;21019;-79
2021/08/14 08:24:58;;;;;;;9.68;3.58;;;;;;;35.52;22.42;100767.05;1666160;85;21095;-79
2021/08/14 08:27:25;;;;;;;6.35;3.77;;;;;;;35.11;23.03;100777.53;1666470;86;21039;-80
2021/08/14 08:29:53;;;;;;;5.55;3.60;;;;;;;34.50;23.67;100775.89;1666386;85;21152;-80
2021/08/14 08:32:20;;;;;;;4.33;2.77;;;;;;;34.45;23.74;100770.49;1664871;86;21131;-78
2021/08/14 08:34:48;;;;;;;5.12;2.83;;;;;;;34.56;22.78;100765.54;1664852;85;21099;-79
2021/08/14 08:37:15;;;;;;;7.08;3.45;;;;;;;34.59;22.53;100765.13;1664211;86;21594;-80
2021/08/14 08:39:42;;;;;;;6.80;3.40;;;;;;;34.77;23.07;100759.19;1656465;86;21624;-79
2021/08/14 08:42:09;;;;;;;8.20;3.52;;;;;;;34.92;22.80;100750.84;1656205;86;21172;-81
2021/08/14 08:44:36;;;;;;;4.87;3.15;;;;;;;35.20;23.44;100762.63;1656200;86;21572;-80
2021/08/14 08:47:06;;;;;;;5.85;3.12;;;;;;;35.39;23.59;100753.33;1660873;85;21126;-81
2021/08/14 08:49:33;;;;;;;4.87;3.33;;;;;;;35.13;23.26;100756.25;1652150;86;21176;-80
2021/08/14 08:52:00;;;;;;;5.72;3.30;;;;;;;34.51;23.98;100765.27;1662297;86;21126;-80
2021/08/14 08:54:28;;;;;;;4.47;2.83;;;;;;;33.87;24.34;100758.80;1664850;86;21342;-80
2021/08/14 08:56:54;;;;;;;8.55;3.47;;;;;;;33.28;24.82;100763.00;1664536;86;21103;-82
2021/08/14 08:59:21;;;;;;;5.80;3.15;;;;;;;32.66;25.57;100767.77;1664870;86;21031;-81
2021/08/14 09:01:48;;;;;;;4.67;3.22;;;;;;;32.16;25.49;100761.02;1664935;86;21111;-77
2021/08/14 09:04:28;;;;;;;5.95;3.20;;;;;;;31.98;25.86;100760.84;1670034;85;21152;-78
2021/08/14 09:06:57;;;;;;;12.95;3.60;;;;;;;32.05;26.04;100754.15;1664427;85;22255;-76
2021/08/14 09:09:29;;;;;;;7.28;3.33;;;;;;;32.25;25.91;100758.56;1670368;85;21046;-76
2021/08/14 09:12:06;;;;;;;3.75;2.50;;;;;;;32.64;24.98;100753.46;1665530;85;21628;-77
2021/08/14 09:14:49;;;;;;;4.03;2.75;;;;;;;32.97;24.04;100752.60;1699228;84;21037;-75
2021/08/14 09:17:18;;;;;;;10.50;3.15;;;;;;;33.11;23.66;100749.57;1709174;83;21074;-75
2021/08/14 09:19:46;;;;;;;5.22;3.08;;;;;;;33.44;23.66;100746.41;1660017;83;21186;-77
2021/08/14 09:22:15;;;;;;;4.37;2.50;;;;;;;33.69;23.47;100742.84;1708524;83;21049;-81
2021/08/14 09:24:44;;;;;;;8.25;2.83;;;;;;;33.80;23.00;100740.12;1705044;83;21121;-77
2021/08/14 09:27:14;;;;;;;3.58;2.85;;;;;;;34.03;22.50;100738.04;1688023;83;21152;-76
2021/08/14 09:29:40;;;;;;;4.50;2.67;;;;;;;34.21;22.47;100740.84;1680201;85;21085;-75
2021/08/14 09:32:11;;;;;;;5.47;2.62;;;;;;;34.25;22.90;100730.67;1683800;84;21144;-75
2021/08/14 09:34:49;;;;;;;3.42;2.20;;;;;;;34.29;22.10;100733.03;1678985;85;21588;-78
2021/08/14 09:37:18;;;;;;;5.78;2.70;;;;;;;34.24;21.19;100724.90;1698003;84;29436;-77
2021/08/14 09:39:56;;;;;;;5.10;2.37;;;;;;;33.70;22.52;100722.67;1678969;85;21045;-78
2021/08/14 09:42:24;;;;;;;8.03;2.70;;;;;;;33.61;22.10;100721.10;1698065;84;21097;-75
2021/08/14 09:45:13;;;;;;;6.10;2.20;;;;;;;33.93;22.18;100721.11;1679042;85;21140;-76
2021/08/14 09:47:42;;;;;;;4.72;2.98;;;;;;;34.19;21.15;100721.92;1698428;84;21069;-77
2021/08/14 09:50:10;;;;;;;8.80;4.10;;;;;;;34.29;21.01;100719.37;1708734;83;21141;-76
2021/08/14 09:52:38;;;;;;;5.85;2.50;;;;;;;34.41;20.98;100709.04;1709187;83;21055;-75
2021/08/14 09:55:10;;;;;;;9.93;3.05;;;;;;;34.42;20.65;100709.38;1708585;83;21050;-77
2021/08/14 09:57:37;;;;;;;7.50;4.50;;;;;;;33.62;21.78;100714.09;1707063;83;21190;-77
2021/08/14 10:00:07;;;;;;;3.70;2.58;;;;;;;33.53;22.08;100706.19;1706929;83;21109;-76
2021/08/14 10:02:36;;;;;;;4.22;2.33;;;;;;;33.55;21.79;100706.31;1700609;83;21094;-76
2021/08/14 10:05:05;;;;;;;6.58;2.77;;;;;;;33.01;22.20;100706.67;1703688;83;22257;-77
2021/08/14 10:07:33;;;;;;;3.83;2.25;;;;;;;32.81;22.76;100706.42;1671019;84;21062;-77
2021/08/14 10:10:00;;;;;;;6.78;2.52;;;;;;;32.54;23.05;100702.47;1674881;84;21993;-78
2021/08/14 10:12:27;;;;;;;5.87;2.90;;;;;;;32.60;23.21;100705.78;1687650;84;21090;-77
2021/08/14 10:14:54;;;;;;;3.05;2.17;;;;;;;32.84;23.16;100703.84;1701262;84;21074;-76
2021/08/14 10:17:24;;;;;;;5.00;2.72;;;;;;;33.03;22.73;100690.97;1684472;84;21137;-76
2021/08/14 10:19:52;;;;;;;6.25;2.42;;;;;;;33.26;21.72;100699.58;1686258;84;21081;-77
2021/08/14 10:22:24;;;;;;;3.27;2.55;;;;;;;33.24;21.78;100692.94;1673144;84;21130;-78
2021/08/14 10:24:51;;;;;;;5.33;2.35;;;;;;;33.33;21.48;100693.67;1673587;84;21566;-76
2021/08/14 10:27:20;;;;;;;4.20;2.37;;;;;;;33.35;21.40;100690.23;1673849;85;21051;-76
2021/08/14 10:30:00;;;;;;;3.27;2.22;;;;;;;33.35;21.38;100688.87;1674100;85;21071;-76
2021/08/14 10:32:41;;;;;;;5.58;3.02;;;;;;;33.22;21.25;100686.32;1673975;85;21051;-76
2021/08/14 10:35:23;;;;;;;2.95;2.30;;;;;;;33.23;21.56;100688.00;1675300;84;21087;-78
2021/08/14 10:37:50;;;;;;;3.98;2.27;;;;;;;33.56;21.47;100679.33;1697908;84;21125;-76
2021/08/14 10:40:21;;;;;;;3.42;2.30;;;;;;;33.78;20.67;100676.65;1679409;83;21068;-77
2021/08/14 10:42:57;;;;;;;4.87;2.25;;;;;;;33.59;20.88;100672.16;1703654;83;20976;-76
2021/08/14 10:45:35;;;;;;;4.80;2.77;;;;;;;33.46;21.61;100674.72;1683249;84;21032;-76
2021/08/14 10:48:05;;;;;;;3.00;2.50;;;;;;;33.83;21.05;100678.27;1673053;85;21569;-76
2021/08/14 10:50:38;;;;;;;3.42;2.20;;;;;;;34.16;19.61;100678.56;1682748;85;21101;-75
2021/08/14 10:53:18;;;;;;;3.37;2.10;;;;;;;34.21;19.95;100669.77;1663157;85;21094;-76
2021/08/14 10:55:57;;;;;;;3.77;2.65;;;;;;;34.52;20.54;100669.89;1682375;84;21129;-76
2021/08/14 10:58:32;;;;;;;3.85;2.33;;;;;;;34.77;20.30;100669.75;1680946;83;21306;-75
2021/08/14 11:01:13;;;;;;;5.70;2.45;;;;;;;34.97;19.55;100668.98;1700550;84;21647;-78
2021/08/14 11:03:40;;;;;;;2.85;1.90;;;;;;;35.04;19.51;100661.64;1700180;84;21011;-77
2021/08/14 11:06:28;;;;;;;4.75;2.20;;;;;;;34.87;19.18;100666.10;1706325;83;21098;-76
2021/08/14 11:09:20;;;;;;;3.77;2.42;;;;;;;34.81;19.20;100661.97;1671106;84;21030;-77
2021/08/14 11:12:01;;;;;;;4.95;2.20;;;;;;;34.64;19.44;100656.00;1658618;86;21567;-77
2021/08/14 11:14:42;;;;;;;7.75;3.02;;;;;;;34.48;19.93;100657.97;1673752;85;21893;-78
2021/08/14 11:17:11;;;;;;;3.47;2.20;;;;;;;34.70;20.36;100656.56;1680423;85;21090;-77
2021/08/14 11:19:48;;;;;;;4.50;2.42;;;;;;;34.84;19.68;100651.47;1671814;85;21076;-76
2021/08/14 11:22:28;;;;;;;6.67;2.40;;;;;;;35.04;19.79;100656.17;1677961;85;21117;-76
2021/08/14 11:25:05;;;;;;;9.93;2.22;;;;;;;35.00;19.69;100645.34;1655875;85;21593;-76
2021/08/14 11:27:34;;;;;;;2.17;1.65;;;;;;;34.88;20.24;100651.92;1679874;85;21181;-76
2021/08/14 11:30:10;;;;;;;3.22;2.20;;;;;;;34.95;20.05;100650.56;1672084;85;21074;-75
2021/08/14 11:32:38;;;;;;;3.37;1.80;;;;;;;35.01;19.20;100648.38;1683069;85;21066;-77